sensor_id;sensor_type;location;lat;lon;timestamp;P1;durP1;ratioP1;P2;durP2;ratioP2
49728;SDS011;66333;49.798;10.968;2023-01-04T00:01:18;6.67;;;4.90;;
49728;SDS011;66333;49.798;10.968;2023-01-04T00:03:47;6.43;;;4.57;;
49728;SDS011;66333;49.798;10.968;2023-01-04T00:06:14;7.10;;;4.97;;
49728;SDS011;66333;49.798;10.968;2023-01-04T00:08:41;8.13;;;4.77;;
49728;SDS011;66333;49.798;10.968;2023-01-04T00:11:09;6.87;;;4.70;;
49728;SDS011;66333;49.798;10.968;2023-01-04T00:13:37;7.20;;;4.73;;
49728;SDS011;66333;49.798;10.968;2023-01-04T00:16:05;6.57;;;4.70;;
49728;SDS011;66333;49.798;10.968;2023-01-04T00:18:33;7.27;;;4.97;;
49728;SDS011;66333;49.798;10.968;2023-01-04T00:21:09;7.23;;;4.80;;
49728;SDS011;66333;49.798;10.968;2023-01-04T00:23:38;9.30;;;5.57;;
49728;SDS011;66333;49.798;10.968;2023-01-04T00:26:07;8.27;;;4.53;;
49728;SDS011;66333;49.798;10.968;2023-01-04T00:28:34;6.93;;;4.40;;
49728;SDS011;66333;49.798;10.968;2023-01-04T00:31:01;7.33;;;4.87;;
49728;SDS011;66333;49.798;10.968;2023-01-04T00:33:28;7.60;;;4.90;;
49728;SDS011;66333;49.798;10.968;2023-01-04T00:35:55;6.57;;;4.60;;
49728;SDS011;66333;49.798;10.968;2023-01-04T00:38:28;6.70;;;5.00;;
49728;SDS011;66333;49.798;10.968;2023-01-04T00:40:54;6.90;;;4.83;;
49728;SDS011;66333;49.798;10.968;2023-01-04T00:43:20;7.10;;;5.27;;
49728;SDS011;66333;49.798;10.968;2023-01-04T00:45:47;6.87;;;4.83;;
49728;SDS011;66333;49.798;10.968;2023-01-04T00:48:13;6.37;;;4.70;;
49728;SDS011;66333;49.798;10.968;2023-01-04T00:50:40;7.37;;;4.80;;
49728;SDS011;66333;49.798;10.968;2023-01-04T00:53:08;7.37;;;5.27;;
49728;SDS011;66333;49.798;10.968;2023-01-04T00:55:36;8.03;;;4.83;;
49728;SDS011;66333;49.798;10.968;2023-01-04T00:58:03;6.20;;;4.20;;
49728;SDS011;66333;49.798;10.968;2023-01-04T01:00:29;7.43;;;5.13;;
49728;SDS011;66333;49.798;10.968;2023-01-04T01:02:56;6.53;;;5.00;;
49728;SDS011;66333;49.798;10.968;2023-01-04T01:05:22;7.50;;;4.83;;
49728;SDS011;66333;49.798;10.968;2023-01-04T01:07:49;7.37;;;5.00;;
49728;SDS011;66333;49.798;10.968;2023-01-04T01:10:15;7.17;;;4.87;;
49728;SDS011;66333;49.798;10.968;2023-01-04T01:12:43;6.53;;;4.77;;
49728;SDS011;66333;49.798;10.968;2023-01-04T01:15:10;6.93;;;4.47;;
49728;SDS011;66333;49.798;10.968;2023-01-04T01:17:36;7.77;;;5.10;;
49728;SDS011;66333;49.798;10.968;2023-01-04T01:20:03;9.00;;;5.50;;
49728;SDS011;66333;49.798;10.968;2023-01-04T01:22:30;7.80;;;5.00;;
49728;SDS011;66333;49.798;10.968;2023-01-04T01:24:59;7.33;;;4.97;;
49728;SDS011;66333;49.798;10.968;2023-01-04T01:27:26;6.57;;;4.97;;
49728;SDS011;66333;49.798;10.968;2023-01-04T01:29:54;6.93;;;4.87;;
49728;SDS011;66333;49.798;10.968;2023-01-04T01:32:21;6.73;;;4.87;;
49728;SDS011;66333;49.798;10.968;2023-01-04T01:34:47;7.67;;;5.03;;
49728;SDS011;66333;49.798;10.968;2023-01-04T01:37:13;7.63;;;5.10;;
49728;SDS011;66333;49.798;10.968;2023-01-04T01:39:40;6.90;;;4.83;;
49728;SDS011;66333;49.798;10.968;2023-01-04T01:42:10;7.70;;;5.07;;
49728;SDS011;66333;49.798;10.968;2023-01-04T01:45:00;7.93;;;5.30;;
49728;SDS011;66333;49.798;10.968;2023-01-04T01:47:36;7.23;;;5.17;;
49728;SDS011;66333;49.798;10.968;2023-01-04T01:50:08;7.87;;;5.47;;
49728;SDS011;66333;49.798;10.968;2023-01-04T01:52:45;7.00;;;5.27;;
49728;SDS011;66333;49.798;10.968;2023-01-04T01:55:12;7.20;;;4.90;;
49728;SDS011;66333;49.798;10.968;2023-01-04T01:57:41;7.50;;;5.37;;
49728;SDS011;66333;49.798;10.968;2023-01-04T02:00:12;6.80;;;4.83;;
49728;SDS011;66333;49.798;10.968;2023-01-04T02:02:40;7.90;;;5.00;;
49728;SDS011;66333;49.798;10.968;2023-01-04T02:05:10;6.60;;;5.00;;
49728;SDS011;66333;49.798;10.968;2023-01-04T02:07:37;7.43;;;5.30;;
49728;SDS011;66333;49.798;10.968;2023-01-04T02:10:04;7.17;;;4.90;;
49728;SDS011;66333;49.798;10.968;2023-01-04T02:12:32;7.13;;;4.73;;
49728;SDS011;66333;49.798;10.968;2023-01-04T02:14:58;8.57;;;5.50;;
49728;SDS011;66333;49.798;10.968;2023-01-04T02:17:29;7.97;;;5.53;;
49728;SDS011;66333;49.798;10.968;2023-01-04T02:20:14;7.93;;;5.27;;
49728;SDS011;66333;49.798;10.968;2023-01-04T02:26:15;7.43;;;5.70;;
49728;SDS011;66333;49.798;10.968;2023-01-04T02:32:13;7.57;;;5.13;;
49728;SDS011;66333;49.798;10.968;2023-01-04T02:34:48;7.53;;;5.50;;
49728;SDS011;66333;49.798;10.968;2023-01-04T02:37:24;7.93;;;5.43;;
49728;SDS011;66333;49.798;10.968;2023-01-04T02:40:00;7.97;;;5.43;;
49728;SDS011;66333;49.798;10.968;2023-01-04T02:42:35;7.70;;;5.20;;
49728;SDS011;66333;49.798;10.968;2023-01-04T02:45:25;8.00;;;5.40;;
49728;SDS011;66333;49.798;10.968;2023-01-04T02:48:01;6.73;;;4.70;;
49728;SDS011;66333;49.798;10.968;2023-01-04T02:50:50;7.47;;;4.97;;
49728;SDS011;66333;49.798;10.968;2023-01-04T02:53:19;7.53;;;5.83;;
49728;SDS011;66333;49.798;10.968;2023-01-04T02:55:50;7.37;;;5.23;;
49728;SDS011;66333;49.798;10.968;2023-01-04T02:58:36;7.93;;;5.50;;
49728;SDS011;66333;49.798;10.968;2023-01-04T03:04:09;8.07;;;5.63;;
49728;SDS011;66333;49.798;10.968;2023-01-04T03:07:00;6.83;;;4.90;;
49728;SDS011;66333;49.798;10.968;2023-01-04T03:09:34;9.13;;;6.00;;
49728;SDS011;66333;49.798;10.968;2023-01-04T03:12:07;8.07;;;5.77;;
49728;SDS011;66333;49.798;10.968;2023-01-04T03:14:58;9.97;;;6.10;;
49728;SDS011;66333;49.798;10.968;2023-01-04T03:17:30;7.60;;;5.53;;
49728;SDS011;66333;49.798;10.968;2023-01-04T03:20:02;7.53;;;5.13;;
49728;SDS011;66333;49.798;10.968;2023-01-04T03:22:33;8.70;;;5.87;;
49728;SDS011;66333;49.798;10.968;2023-01-04T03:25:22;7.93;;;5.83;;
49728;SDS011;66333;49.798;10.968;2023-01-04T03:28:10;7.17;;;5.17;;
49728;SDS011;66333;49.798;10.968;2023-01-04T03:30:59;8.23;;;5.80;;
49728;SDS011;66333;49.798;10.968;2023-01-04T03:33:46;8.47;;;5.80;;
49728;SDS011;66333;49.798;10.968;2023-01-04T03:36:35;7.30;;;5.45;;
49728;SDS011;66333;49.798;10.968;2023-01-04T03:39:10;8.10;;;5.70;;
49728;SDS011;66333;49.798;10.968;2023-01-04T03:42:03;8.40;;;6.07;;
49728;SDS011;66333;49.798;10.968;2023-01-04T03:44:52;8.60;;;6.17;;
49728;SDS011;66333;49.798;10.968;2023-01-04T03:47:45;8.37;;;5.97;;
49728;SDS011;66333;49.798;10.968;2023-01-04T03:50:35;8.20;;;5.90;;
49728;SDS011;66333;49.798;10.968;2023-01-04T03:53:05;8.70;;;5.97;;
49728;SDS011;66333;49.798;10.968;2023-01-04T03:55:34;8.13;;;6.43;;
49728;SDS011;66333;49.798;10.968;2023-01-04T03:58:02;8.93;;;5.90;;
49728;SDS011;66333;49.798;10.968;2023-01-04T04:00:29;9.67;;;6.10;;
49728;SDS011;66333;49.798;10.968;2023-01-04T04:02:56;9.00;;;6.33;;
49728;SDS011;66333;49.798;10.968;2023-01-04T04:05:31;8.40;;;5.77;;
49728;SDS011;66333;49.798;10.968;2023-01-04T04:08:19;8.67;;;5.87;;
49728;SDS011;66333;49.798;10.968;2023-01-04T04:10:55;8.67;;;6.10;;
49728;SDS011;66333;49.798;10.968;2023-01-04T04:13:22;8.73;;;6.03;;
49728;SDS011;66333;49.798;10.968;2023-01-04T04:15:51;7.77;;;5.83;;
49728;SDS011;66333;49.798;10.968;2023-01-04T04:18:18;8.73;;;6.20;;
49728;SDS011;66333;49.798;10.968;2023-01-04T04:20:44;8.63;;;6.33;;
49728;SDS011;66333;49.798;10.968;2023-01-04T04:23:11;8.03;;;5.93;;
49728;SDS011;66333;49.798;10.968;2023-01-04T04:25:38;7.97;;;5.80;;
49728;SDS011;66333;49.798;10.968;2023-01-04T04:28:05;7.90;;;5.73;;
49728;SDS011;66333;49.798;10.968;2023-01-04T04:30:31;9.50;;;6.00;;
49728;SDS011;66333;49.798;10.968;2023-01-04T04:32:58;8.93;;;5.97;;
49728;SDS011;66333;49.798;10.968;2023-01-04T04:35:24;8.10;;;5.60;;
49728;SDS011;66333;49.798;10.968;2023-01-04T04:37:51;10.00;;;6.50;;
49728;SDS011;66333;49.798;10.968;2023-01-04T04:40:17;9.83;;;6.20;;
49728;SDS011;66333;49.798;10.968;2023-01-04T04:43:02;8.63;;;6.20;;
49728;SDS011;66333;49.798;10.968;2023-01-04T04:45:33;8.93;;;6.00;;
49728;SDS011;66333;49.798;10.968;2023-01-04T04:47:59;8.17;;;6.10;;
49728;SDS011;66333;49.798;10.968;2023-01-04T04:50:26;7.67;;;5.87;;
49728;SDS011;66333;49.798;10.968;2023-01-04T04:52:52;7.50;;;5.37;;
49728;SDS011;66333;49.798;10.968;2023-01-04T04:55:18;8.27;;;5.83;;
49728;SDS011;66333;49.798;10.968;2023-01-04T04:57:45;7.53;;;5.83;;
49728;SDS011;66333;49.798;10.968;2023-01-04T05:00:13;7.70;;;5.30;;
49728;SDS011;66333;49.798;10.968;2023-01-04T05:02:40;8.23;;;5.83;;
49728;SDS011;66333;49.798;10.968;2023-01-04T05:05:07;8.63;;;6.03;;
49728;SDS011;66333;49.798;10.968;2023-01-04T05:07:34;7.87;;;5.67;;
49728;SDS011;66333;49.798;10.968;2023-01-04T05:10:00;8.43;;;5.83;;
49728;SDS011;66333;49.798;10.968;2023-01-04T05:12:27;7.83;;;5.80;;
49728;SDS011;66333;49.798;10.968;2023-01-04T05:15:10;7.23;;;5.40;;
49728;SDS011;66333;49.798;10.968;2023-01-04T05:17:38;7.47;;;5.80;;
49728;SDS011;66333;49.798;10.968;2023-01-04T05:20:05;8.03;;;5.87;;
49728;SDS011;66333;49.798;10.968;2023-01-04T05:22:32;8.87;;;6.00;;
49728;SDS011;66333;49.798;10.968;2023-01-04T05:24:59;9.03;;;6.37;;
49728;SDS011;66333;49.798;10.968;2023-01-04T05:27:25;8.67;;;6.00;;
49728;SDS011;66333;49.798;10.968;2023-01-04T05:29:51;7.80;;;5.67;;
49728;SDS011;66333;49.798;10.968;2023-01-04T05:32:37;8.45;;;6.00;;
49728;SDS011;66333;49.798;10.968;2023-01-04T05:35:03;7.57;;;5.50;;
49728;SDS011;66333;49.798;10.968;2023-01-04T05:37:30;7.67;;;5.93;;
49728;SDS011;66333;49.798;10.968;2023-01-04T05:39:57;7.73;;;5.63;;
49728;SDS011;66333;49.798;10.968;2023-01-04T05:42:23;7.70;;;5.50;;
49728;SDS011;66333;49.798;10.968;2023-01-04T05:44:50;8.20;;;6.10;;
49728;SDS011;66333;49.798;10.968;2023-01-04T05:47:16;8.70;;;5.83;;
49728;SDS011;66333;49.798;10.968;2023-01-04T05:49:44;8.27;;;5.73;;
49728;SDS011;66333;49.798;10.968;2023-01-04T05:52:11;8.63;;;5.77;;
49728;SDS011;66333;49.798;10.968;2023-01-04T05:54:37;7.97;;;5.40;;
49728;SDS011;66333;49.798;10.968;2023-01-04T05:57:04;8.43;;;6.10;;
49728;SDS011;66333;49.798;10.968;2023-01-04T05:59:30;7.93;;;5.37;;
49728;SDS011;66333;49.798;10.968;2023-01-04T06:01:57;8.10;;;5.53;;
49728;SDS011;66333;49.798;10.968;2023-01-04T06:04:24;7.93;;;5.70;;
49728;SDS011;66333;49.798;10.968;2023-01-04T06:06:52;7.93;;;5.57;;
49728;SDS011;66333;49.798;10.968;2023-01-04T06:09:18;8.20;;;5.57;;
49728;SDS011;66333;49.798;10.968;2023-01-04T06:11:44;7.30;;;5.30;;
49728;SDS011;66333;49.798;10.968;2023-01-04T06:14:11;8.10;;;5.60;;
49728;SDS011;66333;49.798;10.968;2023-01-04T06:16:37;7.43;;;5.30;;
49728;SDS011;66333;49.798;10.968;2023-01-04T06:19:04;7.23;;;5.33;;
49728;SDS011;66333;49.798;10.968;2023-01-04T06:21:30;8.47;;;5.70;;
49728;SDS011;66333;49.798;10.968;2023-01-04T06:23:58;7.67;;;5.40;;
49728;SDS011;66333;49.798;10.968;2023-01-04T06:26:25;7.90;;;5.47;;
49728;SDS011;66333;49.798;10.968;2023-01-04T06:28:51;8.10;;;5.23;;
49728;SDS011;66333;49.798;10.968;2023-01-04T06:31:19;7.80;;;5.73;;
49728;SDS011;66333;49.798;10.968;2023-01-04T06:33:45;8.27;;;5.73;;
49728;SDS011;66333;49.798;10.968;2023-01-04T06:36:12;8.33;;;5.90;;
49728;SDS011;66333;49.798;10.968;2023-01-04T06:38:38;9.57;;;5.70;;
49728;SDS011;66333;49.798;10.968;2023-01-04T06:41:06;7.93;;;5.30;;
49728;SDS011;66333;49.798;10.968;2023-01-04T06:43:32;8.20;;;5.00;;
49728;SDS011;66333;49.798;10.968;2023-01-04T06:45:59;8.60;;;5.87;;
49728;SDS011;66333;49.798;10.968;2023-01-04T06:48:25;8.30;;;5.70;;
49728;SDS011;66333;49.798;10.968;2023-01-04T06:50:52;7.23;;;5.13;;
49728;SDS011;66333;49.798;10.968;2023-01-04T06:53:18;8.40;;;5.63;;
49728;SDS011;66333;49.798;10.968;2023-01-04T06:55:45;8.43;;;5.30;;
49728;SDS011;66333;49.798;10.968;2023-01-04T06:58:12;7.30;;;5.20;;
49728;SDS011;66333;49.798;10.968;2023-01-04T07:00:39;7.60;;;5.23;;
49728;SDS011;66333;49.798;10.968;2023-01-04T07:03:05;8.17;;;5.43;;
49728;SDS011;66333;49.798;10.968;2023-01-04T07:05:32;8.03;;;5.53;;
49728;SDS011;66333;49.798;10.968;2023-01-04T07:07:59;7.93;;;5.57;;
49728;SDS011;66333;49.798;10.968;2023-01-04T07:10:26;7.17;;;5.03;;
49728;SDS011;66333;49.798;10.968;2023-01-04T07:12:52;7.10;;;5.43;;
49728;SDS011;66333;49.798;10.968;2023-01-04T07:15:20;7.77;;;5.30;;
49728;SDS011;66333;49.798;10.968;2023-01-04T07:17:47;7.80;;;5.60;;
49728;SDS011;66333;49.798;10.968;2023-01-04T07:20:14;7.70;;;5.37;;
49728;SDS011;66333;49.798;10.968;2023-01-04T07:22:41;8.50;;;5.40;;
49728;SDS011;66333;49.798;10.968;2023-01-04T07:25:07;8.30;;;5.43;;
49728;SDS011;66333;49.798;10.968;2023-01-04T07:27:34;7.63;;;5.40;;
49728;SDS011;66333;49.798;10.968;2023-01-04T07:30:00;7.33;;;5.10;;
49728;SDS011;66333;49.798;10.968;2023-01-04T07:32:28;7.63;;;5.50;;
49728;SDS011;66333;49.798;10.968;2023-01-04T07:34:55;7.37;;;5.20;;
49728;SDS011;66333;49.798;10.968;2023-01-04T07:37:22;8.43;;;5.53;;
49728;SDS011;66333;49.798;10.968;2023-01-04T07:39:48;7.17;;;5.40;;
49728;SDS011;66333;49.798;10.968;2023-01-04T07:42:15;8.37;;;5.33;;
49728;SDS011;66333;49.798;10.968;2023-01-04T07:44:43;8.17;;;4.97;;
49728;SDS011;66333;49.798;10.968;2023-01-04T07:47:09;7.60;;;4.90;;
49728;SDS011;66333;49.798;10.968;2023-01-04T07:49:37;8.13;;;5.60;;
49728;SDS011;66333;49.798;10.968;2023-01-04T07:52:04;7.67;;;5.27;;
49728;SDS011;66333;49.798;10.968;2023-01-04T07:54:30;7.20;;;5.07;;
49728;SDS011;66333;49.798;10.968;2023-01-04T07:56:57;8.23;;;5.00;;
49728;SDS011;66333;49.798;10.968;2023-01-04T07:59:23;7.80;;;5.53;;
49728;SDS011;66333;49.798;10.968;2023-01-04T08:01:50;7.37;;;5.40;;
49728;SDS011;66333;49.798;10.968;2023-01-04T08:04:16;7.77;;;5.00;;
49728;SDS011;66333;49.798;10.968;2023-01-04T08:06:44;7.10;;;4.87;;
49728;SDS011;66333;49.798;10.968;2023-01-04T08:09:11;7.43;;;5.13;;
49728;SDS011;66333;49.798;10.968;2023-01-04T08:11:38;7.13;;;4.97;;
49728;SDS011;66333;49.798;10.968;2023-01-04T08:14:05;7.47;;;5.13;;
49728;SDS011;66333;49.798;10.968;2023-01-04T08:16:33;7.63;;;5.00;;
49728;SDS011;66333;49.798;10.968;2023-01-04T08:19:01;7.67;;;5.20;;
49728;SDS011;66333;49.798;10.968;2023-01-04T08:21:29;7.53;;;4.87;;
49728;SDS011;66333;49.798;10.968;2023-01-04T08:24:00;7.70;;;4.90;;
49728;SDS011;66333;49.798;10.968;2023-01-04T08:26:27;7.53;;;4.87;;
49728;SDS011;66333;49.798;10.968;2023-01-04T08:28:54;7.43;;;5.07;;
49728;SDS011;66333;49.798;10.968;2023-01-04T08:31:22;7.27;;;4.70;;
49728;SDS011;66333;49.798;10.968;2023-01-04T08:33:49;7.70;;;5.10;;
49728;SDS011;66333;49.798;10.968;2023-01-04T08:36:17;7.60;;;4.80;;
49728;SDS011;66333;49.798;10.968;2023-01-04T08:38:45;7.53;;;5.30;;
49728;SDS011;66333;49.798;10.968;2023-01-04T08:41:13;7.90;;;5.03;;
49728;SDS011;66333;49.798;10.968;2023-01-04T08:43:40;6.40;;;4.23;;
49728;SDS011;66333;49.798;10.968;2023-01-04T08:46:06;6.73;;;5.03;;
49728;SDS011;66333;49.798;10.968;2023-01-04T08:48:34;7.33;;;4.60;;
49728;SDS011;66333;49.798;10.968;2023-01-04T08:51:02;6.93;;;4.67;;
49728;SDS011;66333;49.798;10.968;2023-01-04T08:53:30;7.07;;;4.73;;
49728;SDS011;66333;49.798;10.968;2023-01-04T08:55:57;7.73;;;5.00;;
49728;SDS011;66333;49.798;10.968;2023-01-04T08:58:26;6.73;;;4.70;;
49728;SDS011;66333;49.798;10.968;2023-01-04T09:00:58;7.27;;;4.57;;
49728;SDS011;66333;49.798;10.968;2023-01-04T09:03:25;8.57;;;5.57;;
49728;SDS011;66333;49.798;10.968;2023-01-04T09:05:51;7.43;;;4.50;;
49728;SDS011;66333;49.798;10.968;2023-01-04T09:08:17;7.27;;;4.90;;
49728;SDS011;66333;49.798;10.968;2023-01-04T09:10:44;6.83;;;4.57;;
49728;SDS011;66333;49.798;10.968;2023-01-04T09:13:10;7.47;;;4.70;;
49728;SDS011;66333;49.798;10.968;2023-01-04T09:15:38;6.67;;;4.50;;
49728;SDS011;66333;49.798;10.968;2023-01-04T09:18:04;7.67;;;4.67;;
49728;SDS011;66333;49.798;10.968;2023-01-04T09:20:32;7.07;;;4.53;;
49728;SDS011;66333;49.798;10.968;2023-01-04T09:22:58;6.77;;;4.53;;
49728;SDS011;66333;49.798;10.968;2023-01-04T09:25:25;6.57;;;4.40;;
49728;SDS011;66333;49.798;10.968;2023-01-04T09:27:51;6.40;;;4.23;;
49728;SDS011;66333;49.798;10.968;2023-01-04T09:30:18;7.03;;;4.63;;
49728;SDS011;66333;49.798;10.968;2023-01-04T09:32:45;6.73;;;4.27;;
49728;SDS011;66333;49.798;10.968;2023-01-04T09:35:12;7.03;;;4.57;;
49728;SDS011;66333;49.798;10.968;2023-01-04T09:37:38;6.63;;;4.60;;
49728;SDS011;66333;49.798;10.968;2023-01-04T09:40:05;6.10;;;4.20;;
49728;SDS011;66333;49.798;10.968;2023-01-04T09:42:34;6.70;;;4.30;;
49728;SDS011;66333;49.798;10.968;2023-01-04T09:45:07;6.83;;;4.73;;
49728;SDS011;66333;49.798;10.968;2023-01-04T09:47:41;6.50;;;4.00;;
49728;SDS011;66333;49.798;10.968;2023-01-04T09:50:14;6.93;;;4.60;;
49728;SDS011;66333;49.798;10.968;2023-01-04T09:52:46;5.67;;;3.87;;
49728;SDS011;66333;49.798;10.968;2023-01-04T09:55:20;6.33;;;4.53;;
49728;SDS011;66333;49.798;10.968;2023-01-04T09:57:52;7.70;;;4.57;;
49728;SDS011;66333;49.798;10.968;2023-01-04T10:00:22;6.70;;;4.37;;
49728;SDS011;66333;49.798;10.968;2023-01-04T10:02:55;6.27;;;4.17;;
49728;SDS011;66333;49.798;10.968;2023-01-04T10:05:27;6.70;;;4.30;;
49728;SDS011;66333;49.798;10.968;2023-01-04T10:07:56;6.50;;;4.07;;
49728;SDS011;66333;49.798;10.968;2023-01-04T10:10:28;6.50;;;4.20;;
49728;SDS011;66333;49.798;10.968;2023-01-04T10:13:13;6.47;;;4.00;;
49728;SDS011;66333;49.798;10.968;2023-01-04T10:15:54;6.67;;;4.23;;
49728;SDS011;66333;49.798;10.968;2023-01-04T10:18:29;6.38;;;4.00;;
49728;SDS011;66333;49.798;10.968;2023-01-04T10:21:06;5.82;;;3.95;;
49728;SDS011;66333;49.798;10.968;2023-01-04T10:23:44;5.80;;;4.00;;
49728;SDS011;66333;49.798;10.968;2023-01-04T10:26:21;6.47;;;4.00;;
49728;SDS011;66333;49.798;10.968;2023-01-04T10:28:56;6.70;;;4.40;;
49728;SDS011;66333;49.798;10.968;2023-01-04T10:31:34;5.47;;;3.60;;
49728;SDS011;66333;49.798;10.968;2023-01-04T10:34:13;6.43;;;3.97;;
49728;SDS011;66333;49.798;10.968;2023-01-04T10:36:47;6.63;;;4.10;;
49728;SDS011;66333;49.798;10.968;2023-01-04T10:39:15;6.07;;;4.00;;
49728;SDS011;66333;49.798;10.968;2023-01-04T10:41:44;6.07;;;4.03;;
49728;SDS011;66333;49.798;10.968;2023-01-04T10:44:16;6.07;;;4.00;;
49728;SDS011;66333;49.798;10.968;2023-01-04T10:46:50;6.30;;;3.57;;
49728;SDS011;66333;49.798;10.968;2023-01-04T10:49:22;6.23;;;3.67;;
49728;SDS011;66333;49.798;10.968;2023-01-04T10:51:56;5.90;;;3.83;;
49728;SDS011;66333;49.798;10.968;2023-01-04T10:54:29;5.72;;;3.25;;
49728;SDS011;66333;49.798;10.968;2023-01-04T10:57:03;8.73;;;3.53;;
49728;SDS011;66333;49.798;10.968;2023-01-04T10:59:35;8.10;;;3.13;;
49728;SDS011;66333;49.798;10.968;2023-01-04T11:02:09;10.83;;;2.90;;
49728;SDS011;66333;49.798;10.968;2023-01-04T11:04:45;7.47;;;3.50;;
49728;SDS011;66333;49.798;10.968;2023-01-04T11:07:21;8.37;;;3.13;;
49728;SDS011;66333;49.798;10.968;2023-01-04T11:09:52;5.60;;;2.80;;
49728;SDS011;66333;49.798;10.968;2023-01-04T11:12:22;10.67;;;4.13;;
49728;SDS011;66333;49.798;10.968;2023-01-04T11:14:49;8.33;;;2.80;;
49728;SDS011;66333;49.798;10.968;2023-01-04T11:17:16;5.37;;;2.90;;
49728;SDS011;66333;49.798;10.968;2023-01-04T11:19:44;7.00;;;3.20;;
49728;SDS011;66333;49.798;10.968;2023-01-04T11:22:13;7.97;;;3.40;;
49728;SDS011;66333;49.798;10.968;2023-01-04T11:24:44;6.10;;;3.20;;
49728;SDS011;66333;49.798;10.968;2023-01-04T11:27:15;8.43;;;3.20;;
49728;SDS011;66333;49.798;10.968;2023-01-04T11:29:44;7.23;;;3.37;;
49728;SDS011;66333;49.798;10.968;2023-01-04T11:32:17;7.77;;;2.77;;
49728;SDS011;66333;49.798;10.968;2023-01-04T11:34:49;5.40;;;2.53;;
49728;SDS011;66333;49.798;10.968;2023-01-04T11:37:24;7.33;;;3.20;;
49728;SDS011;66333;49.798;10.968;2023-01-04T11:42:45;7.33;;;2.90;;
49728;SDS011;66333;49.798;10.968;2023-01-04T11:45:16;5.40;;;2.80;;
49728;SDS011;66333;49.798;10.968;2023-01-04T11:47:49;4.57;;;2.67;;
49728;SDS011;66333;49.798;10.968;2023-01-04T11:50:33;5.23;;;2.70;;
49728;SDS011;66333;49.798;10.968;2023-01-04T11:53:03;5.43;;;3.40;;
49728;SDS011;66333;49.798;10.968;2023-01-04T11:58:15;5.93;;;2.90;;
49728;SDS011;66333;49.798;10.968;2023-01-04T12:00:48;5.53;;;2.60;;
49728;SDS011;66333;49.798;10.968;2023-01-04T12:03:17;6.37;;;2.70;;
49728;SDS011;66333;49.798;10.968;2023-01-04T12:05:50;6.00;;;2.50;;
49728;SDS011;66333;49.798;10.968;2023-01-04T12:08:27;6.10;;;2.77;;
49728;SDS011;66333;49.798;10.968;2023-01-04T12:10:58;6.73;;;2.57;;
49728;SDS011;66333;49.798;10.968;2023-01-04T12:13:26;5.20;;;2.57;;
49728;SDS011;66333;49.798;10.968;2023-01-04T12:15:55;5.50;;;2.50;;
49728;SDS011;66333;49.798;10.968;2023-01-04T12:18:29;5.50;;;2.80;;
49728;SDS011;66333;49.798;10.968;2023-01-04T12:21:00;4.87;;;2.47;;
49728;SDS011;66333;49.798;10.968;2023-01-04T12:23:28;7.53;;;3.33;;
49728;SDS011;66333;49.798;10.968;2023-01-04T12:25:55;4.87;;;2.73;;
49728;SDS011;66333;49.798;10.968;2023-01-04T12:28:30;5.50;;;2.60;;
49728;SDS011;66333;49.798;10.968;2023-01-04T12:33:54;4.90;;;2.67;;
49728;SDS011;66333;49.798;10.968;2023-01-04T12:39:25;4.63;;;2.53;;
49728;SDS011;66333;49.798;10.968;2023-01-04T12:44:59;4.53;;;2.57;;
49728;SDS011;66333;49.798;10.968;2023-01-04T12:47:37;5.20;;;2.63;;
49728;SDS011;66333;49.798;10.968;2023-01-04T12:50:23;4.90;;;2.50;;
49728;SDS011;66333;49.798;10.968;2023-01-04T12:52:51;6.07;;;2.57;;
49728;SDS011;66333;49.798;10.968;2023-01-04T12:55:23;5.73;;;2.27;;
49728;SDS011;66333;49.798;10.968;2023-01-04T12:57:51;5.10;;;2.70;;
49728;SDS011;66333;49.798;10.968;2023-01-04T13:00:20;4.50;;;2.33;;
49728;SDS011;66333;49.798;10.968;2023-01-04T13:02:47;5.10;;;2.20;;
49728;SDS011;66333;49.798;10.968;2023-01-04T13:05:34;4.70;;;2.47;;
49728;SDS011;66333;49.798;10.968;2023-01-04T13:08:07;6.50;;;2.20;;
49728;SDS011;66333;49.798;10.968;2023-01-04T13:10:36;5.50;;;2.60;;
49728;SDS011;66333;49.798;10.968;2023-01-04T13:13:20;4.57;;;2.33;;
49728;SDS011;66333;49.798;10.968;2023-01-04T13:16:01;4.10;;;2.20;;
49728;SDS011;66333;49.798;10.968;2023-01-04T13:18:38;4.40;;;2.50;;
49728;SDS011;66333;49.798;10.968;2023-01-04T13:21:10;4.00;;;2.30;;
49728;SDS011;66333;49.798;10.968;2023-01-04T13:23:39;4.83;;;2.10;;
49728;SDS011;66333;49.798;10.968;2023-01-04T13:26:25;4.77;;;2.47;;
49728;SDS011;66333;49.798;10.968;2023-01-04T13:29:04;4.40;;;2.30;;
49728;SDS011;66333;49.798;10.968;2023-01-04T13:31:33;6.03;;;2.20;;
49728;SDS011;66333;49.798;10.968;2023-01-04T13:34:11;3.87;;;2.07;;
49728;SDS011;66333;49.798;10.968;2023-01-04T13:36:41;4.30;;;2.20;;
49728;SDS011;66333;49.798;10.968;2023-01-04T13:39:09;4.20;;;2.07;;
49728;SDS011;66333;49.798;10.968;2023-01-04T13:41:37;4.73;;;2.27;;
49728;SDS011;66333;49.798;10.968;2023-01-04T13:44:12;4.80;;;2.60;;
49728;SDS011;66333;49.798;10.968;2023-01-04T13:46:48;5.43;;;2.30;;
49728;SDS011;66333;49.798;10.968;2023-01-04T13:49:19;4.40;;;2.33;;
49728;SDS011;66333;49.798;10.968;2023-01-04T13:51:47;5.77;;;2.30;;
49728;SDS011;66333;49.798;10.968;2023-01-04T13:54:17;4.40;;;2.20;;
49728;SDS011;66333;49.798;10.968;2023-01-04T13:56:44;5.20;;;2.37;;
49728;SDS011;66333;49.798;10.968;2023-01-04T13:59:11;5.27;;;2.20;;
49728;SDS011;66333;49.798;10.968;2023-01-04T14:01:40;4.60;;;2.40;;
49728;SDS011;66333;49.798;10.968;2023-01-04T14:04:13;4.60;;;2.20;;
49728;SDS011;66333;49.798;10.968;2023-01-04T14:06:47;4.60;;;2.17;;
49728;SDS011;66333;49.798;10.968;2023-01-04T14:09:16;3.93;;;2.00;;
49728;SDS011;66333;49.798;10.968;2023-01-04T14:11:46;4.50;;;2.27;;
49728;SDS011;66333;49.798;10.968;2023-01-04T14:17:15;5.23;;;2.10;;
49728;SDS011;66333;49.798;10.968;2023-01-04T14:19:49;4.77;;;2.27;;
49728;SDS011;66333;49.798;10.968;2023-01-04T14:22:24;4.67;;;2.17;;
49728;SDS011;66333;49.798;10.968;2023-01-04T14:30:54;4.07;;;2.00;;
49728;SDS011;66333;49.798;10.968;2023-01-04T14:33:37;3.97;;;1.90;;
49728;SDS011;66333;49.798;10.968;2023-01-04T14:36:11;4.30;;;2.10;;
49728;SDS011;66333;49.798;10.968;2023-01-04T14:38:40;4.73;;;2.30;;
49728;SDS011;66333;49.798;10.968;2023-01-04T14:41:10;5.20;;;2.67;;
49728;SDS011;66333;49.798;10.968;2023-01-04T14:43:42;4.57;;;2.17;;
49728;SDS011;66333;49.798;10.968;2023-01-04T14:46:10;3.90;;;1.90;;
49728;SDS011;66333;49.798;10.968;2023-01-04T14:48:37;3.73;;;2.00;;
49728;SDS011;66333;49.798;10.968;2023-01-04T14:51:03;4.37;;;2.40;;
49728;SDS011;66333;49.798;10.968;2023-01-04T14:53:32;4.07;;;2.07;;
49728;SDS011;66333;49.798;10.968;2023-01-04T14:55:59;4.93;;;2.10;;
49728;SDS011;66333;49.798;10.968;2023-01-04T14:58:26;4.37;;;2.10;;
49728;SDS011;66333;49.798;10.968;2023-01-04T15:00:52;4.80;;;2.20;;
49728;SDS011;66333;49.798;10.968;2023-01-04T15:03:19;4.50;;;2.20;;
49728;SDS011;66333;49.798;10.968;2023-01-04T15:05:45;4.17;;;1.80;;
49728;SDS011;66333;49.798;10.968;2023-01-04T15:08:11;4.50;;;2.13;;
49728;SDS011;66333;49.798;10.968;2023-01-04T15:10:39;4.27;;;2.17;;
49728;SDS011;66333;49.798;10.968;2023-01-04T15:13:06;4.20;;;1.93;;
49728;SDS011;66333;49.798;10.968;2023-01-04T15:15:32;3.87;;;1.90;;
49728;SDS011;66333;49.798;10.968;2023-01-04T15:17:58;4.30;;;2.30;;
49728;SDS011;66333;49.798;10.968;2023-01-04T15:20:25;4.70;;;2.10;;
49728;SDS011;66333;49.798;10.968;2023-01-04T15:22:51;4.37;;;2.37;;
49728;SDS011;66333;49.798;10.968;2023-01-04T15:25:18;4.03;;;2.00;;